Time;durP1;ratioP1;P1;durP2;ratioP2;P2;SDS_P1;SDS_P2;PMS_P1;PMS_P2;Temp;Humidity;BMP_temperature;BMP_pressure;BME280_temperature;BME280_humidity;BME280_pressure;Samples;Min_cycle;Max_cycle;Signal;HPM_P1;HPM_P2
2023/09/01 05:31:32;;;;;;;5.72;3.58;;;14.20;99.90;;;;;;4996488;28;20211;-92
2023/09/01 06:35:22;;;;;;;4.50;2.85;;;16.00;99.90;;;;;;5564497;23;20231;-93
2023/09/01 06:37:50;;;;;;;3.53;2.42;;;16.10;99.90;;;;;;4999041;28;20188;-89
2023/09/01 06:40:17;;;;;;;3.40;2.60;;;16.10;99.90;;;;;;4981779;28;20204;-91
2023/09/01 06:42:44;;;;;;;3.17;2.70;;;16.20;99.90;;;;;;4998935;28;20207;-90
2023/09/01 07:04:57;;;;;;;3.05;2.33;;;17.40;99.90;;;;;;5002989;28;20183;-94
2023/09/01 10:20:07;;;;;;;2.45;1.95;;;26.00;16.30;;;;;;4974352;28;20561;-88
2023/09/01 10:22:38;;;;;;;3.45;1.90;;;25.90;17.60;;;;;;4990056;28;20200;-92
2023/09/01 10:25:22;;;;;;;2.28;2.03;;;26.30;16.20;;;;;;4974632;28;20673;-93
2023/09/01 10:48:00;;;;;;;2.40;2.17;;;27.20;15.20;;;;;;4957720;29;20274;-90
2023/09/01 10:50:33;;;;;;;2.97;2.08;;;27.80;15.50;;;;;;4976390;28;20279;-91
2023/09/01 10:53:31;;;;;;;2.05;1.85;;;27.90;12.70;;;;;;4979499;28;20212;-91
2023/09/01 10:56:11;;;;;;;4.03;2.05;;;27.40;15.40;;;;;;4961518;28;20185;-91
2023/09/01 11:01:51;;;;;;;2.50;2.10;;;26.80;15.00;;;;;;4959829;28;20229;-88
2023/09/01 11:08:18;;;;;;;2.40;2.08;;;26.30;16.30;;;;;;4973617;28;20192;-88
2023/09/01 11:10:45;;;;;;;2.83;1.90;;;25.70;15.90;;;;;;4930719;29;20228;-91
2023/09/01 11:13:16;;;;;;;3.28;1.90;;;25.10;17.90;;;;;;4939908;29;20205;-87
2023/09/01 11:15:47;;;;;;;2.78;2.00;;;25.00;20.40;;;;;;4949265;28;20205;-88
2023/09/01 11:25:04;;;;;;;1.73;1.60;;;24.40;18.70;;;;;;4965212;28;20220;-90
2023/09/01 11:27:31;;;;;;;6.20;1.90;;;24.10;19.50;;;;;;4978171;28;20204;-91
2023/09/01 11:29:58;;;;;;;4.57;1.90;;;24.10;20.70;;;;;;4975593;28;20204;-90
2023/09/01 11:32:26;;;;;;;4.57;1.88;;;24.10;20.60;;;;;;4974522;28;20228;-91
2023/09/01 11:34:53;;;;;;;1.80;1.58;;;24.30;20.00;;;;;;4974624;28;20205;-89
2023/09/01 11:37:36;;;;;;;2.05;1.50;;;24.60;19.20;;;;;;4977280;28;20196;-89
2023/09/01 11:43:36;;;;;;;1.65;1.55;;;24.80;19.40;;;;;;4977722;28;20687;-89
2023/09/01 12:05:35;;;;;;;2.88;2.40;;;24.30;19.60;;;;;;5866672;23;20240;-94
2023/09/01 12:08:04;;;;;;;3.00;2.20;;;24.30;19.80;;;;;;4982542;28;20203;-93
2023/09/01 12:10:31;;;;;;;4.80;2.03;;;24.40;19.90;;;;;;4986615;28;20211;-93
2023/09/01 12:13:09;;;;;;;2.53;1.80;;;24.50;19.30;;;;;;4990511;28;20200;-94
2023/09/01 12:15:57;;;;;;;2.03;1.77;;;24.50;18.80;;;;;;4996127;28;20192;-92
2023/09/01 12:18:35;;;;;;;2.53;1.65;;;24.60;19.10;;;;;;4997357;28;20268;-91
2023/09/01 12:21:05;;;;;;;2.53;1.98;;;24.70;20.00;;;;;;4978694;28;20649;-91
2023/09/01 12:23:33;;;;;;;1.83;1.60;;;24.80;20.30;;;;;;4977503;28;20212;-89
2023/09/01 12:26:01;;;;;;;3.00;2.63;;;25.00;18.70;;;;;;4976823;28;20568;-90
2023/09/01 12:35:24;;;;;;;3.90;1.42;;;24.60;16.60;;;;;;4977407;28;20586;-90
2023/09/01 12:38:01;;;;;;;1.80;1.50;;;24.60;17.50;;;;;;4977468;28;20200;-91
2023/09/01 12:40:27;;;;;;;1.25;1.15;;;24.50;16.00;;;;;;4979319;28;20193;-90
2023/09/01 12:42:54;;;;;;;1.90;1.48;;;24.50;16.10;;;;;;4977952;28;20207;-90
2023/09/01 12:45:21;;;;;;;2.42;1.38;;;24.50;17.10;;;;;;4977257;28;20223;-89
2023/09/01 12:48:43;;;;;;;1.65;1.50;;;24.60;17.10;;;;;;4977290;28;20200;-90
2023/09/01 12:51:29;;;;;;;1.70;1.60;;;24.70;17.20;;;;;;5125875;23;20588;-91
2023/09/01 12:53:57;;;;;;;2.95;1.65;;;24.80;17.90;;;;;;4987403;28;20211;-90
2023/09/01 12:56:24;;;;;;;1.60;1.50;;;24.70;17.80;;;;;;4993026;28;20211;-91
2023/09/01 12:58:51;;;;;;;1.70;1.50;;;24.70;19.00;;;;;;4995261;28;20584;-89
2023/09/01 13:01:19;;;;;;;2.45;1.80;;;24.70;17.10;;;;;;4997556;28;20196;-89
2023/09/01 13:03:46;;;;;;;4.95;1.80;;;24.60;18.40;;;;;;4997041;28;20203;-91
2023/09/01 13:06:13;;;;;;;2.03;1.55;;;24.70;18.60;;;;;;4997391;28;20196;-90
2023/09/01 13:08:40;;;;;;;4.38;1.50;;;24.60;19.70;;;;;;4995455;28;20207;-90
2023/09/01 13:44:08;;;;;;;2.35;1.50;;;24.70;19.30;;;;;;5000008;28;20304;-93
2023/09/01 14:16:04;;;;;;;3.60;2.28;;;24.10;20.70;;;;;;4986473;28;20217;-88
2023/09/01 14:18:30;;;;;;;2.47;1.60;;;23.90;20.90;;;;;;4977906;28;20196;-89
2023/09/01 14:20:59;;;;;;;2.40;2.15;;;23.90;22.80;;;;;;4981107;28;20211;-90
2023/09/01 14:23:27;;;;;;;3.20;2.00;;;24.10;21.40;;;;;;4979164;28;20211;-91
2023/09/01 14:40:03;;;;;;;2.95;1.60;;;23.80;22.70;;;;;;4981052;28;20232;-91
2023/09/01 15:36:37;;;;;;;2.10;1.60;;;23.70;24.20;;;;;;5016094;23;20234;-93
2023/09/01 15:39:04;;;;;;;3.78;1.70;;;23.60;25.00;;;;;;5009391;28;20199;-93
2023/09/01 15:41:32;;;;;;;1.42;1.33;;;23.50;24.50;;;;;;5008867;28;20287;-93
2023/09/01 15:44:02;;;;;;;1.80;1.40;;;23.40;25.00;;;;;;4981029;28;20204;-92
2023/09/01 15:46:29;;;;;;;1.98;1.60;;;23.40;23.80;;;;;;4998266;28;20717;-92
2023/09/01 15:48:56;;;;;;;1.73;1.50;;;23.30;24.80;;;;;;5002489;28;20208;-92
2023/09/01 15:51:24;;;;;;;1.83;1.63;;;23.30;25.40;;;;;;4997808;28;20235;-93
2023/09/01 15:56:33;;;;;;;1.45;1.35;;;23.30;25.50;;;;;;4981050;28;20258;-93
2023/09/01 15:59:04;;;;;;;1.83;1.40;;;23.40;25.30;;;;;;4980502;28;20216;-92
2023/09/01 16:01:30;;;;;;;6.38;2.03;;;23.50;25.30;;;;;;4976787;28;20212;-93
2023/09/01 16:03:58;;;;;;;1.83;1.42;;;23.50;24.30;;;;;;4971833;28;20558;-93
2023/09/01 16:06:27;;;;;;;3.72;1.50;;;23.30;25.30;;;;;;4981634;28;20204;-92
2023/09/01 16:08:55;;;;;;;2.20;1.70;;;23.40;25.40;;;;;;4982816;28;20192;-94
2023/09/01 16:11:22;;;;;;;2.22;1.40;;;23.30;25.30;;;;;;4980288;28;20204;-93
2023/09/01 16:13:49;;;;;;;2.08;1.50;;;23.40;24.80;;;;;;4973487;28;20566;-92
2023/09/01 16:16:16;;;;;;;1.67;1.58;;;23.20;25.70;;;;;;4986272;28;20537;-93
2023/09/01 16:18:44;;;;;;;1.95;1.60;;;23.20;26.10;;;;;;4999917;28;20645;-92
2023/09/01 16:21:10;;;;;;;3.20;1.92;;;23.10;25.50;;;;;;4995232;28;20655;-92
2023/09/01 16:39:13;;;;;;;2.40;1.67;;;22.70;25.70;;;;;;5000096;28;20227;-93
2023/09/01 16:41:40;;;;;;;4.05;1.80;;;22.70;27.00;;;;;;5001012;28;20199;-93
2023/09/01 16:44:07;;;;;;;2.45;1.80;;;22.70;27.50;;;;;;4985060;28;20207;-93
2023/09/01 16:46:34;;;;;;;2.70;1.60;;;22.60;28.30;;;;;;5002549;28;20203;-89
2023/09/01 16:49:03;;;;;;;3.10;1.65;;;22.60;27.90;;;;;;5000541;28;20204;-92
2023/09/01 16:56:42;;;;;;;1.60;1.50;;;22.60;27.70;;;;;;5598102;23;20242;-93
2023/09/01 16:59:11;;;;;;;1.75;1.52;;;22.60;28.00;;;;;;5017565;28;20300;-94
2023/09/01 17:01:37;;;;;;;2.47;1.85;;;22.50;28.80;;;;;;4978579;28;20205;-93
2023/09/01 17:04:04;;;;;;;2.10;1.75;;;22.40;28.30;;;;;;4979119;28;20204;-93
2023/09/01 17:06:31;;;;;;;2.10;1.77;;;22.30;30.10;;;;;;4966663;28;20200;-92
2023/09/01 17:12:29;;;;;;;3.00;1.88;;;22.00;30.20;;;;;;4982552;28;20267;-90
2023/09/01 17:14:56;;;;;;;4.22;1.60;;;21.90;32.70;;;;;;4976757;28;20215;-90
2023/09/01 17:17:23;;;;;;;3.15;2.05;;;21.80;33.60;;;;;;4983566;28;20671;-91
2023/09/01 17:19:50;;;;;;;2.78;1.95;;;21.70;33.50;;;;;;4997925;28;20203;-91
2023/09/01 17:22:17;;;;;;;2.00;1.80;;;21.40;36.40;;;;;;4996719;28;20214;-89
2023/09/01 17:24:44;;;;;;;1.98;1.73;;;21.30;40.40;;;;;;4994019;28;20211;-91
2023/09/01 17:27:11;;;;;;;3.13;1.77;;;21.20;43.70;;;;;;4976621;28;20196;-92
2023/09/01 17:32:26;;;;;;;2.97;1.95;;;21.10;53.10;;;;;;4978910;28;20231;-91
2023/09/01 17:34:53;;;;;;;4.25;2.50;;;21.00;52.50;;;;;;4982385;28;20208;-91
2023/09/01 17:37:20;;;;;;;2.30;1.80;;;20.90;51.50;;;;;;4992559;28;20239;-92
2023/09/01 17:39:48;;;;;;;2.38;2.10;;;20.80;56.70;;;;;;4979396;28;20205;-92
2023/09/01 17:42:15;;;;;;;2.70;2.15;;;20.80;57.90;;;;;;4983732;28;20211;-91
2023/09/01 17:44:47;;;;;;;5.95;3.25;;;20.70;60.30;;;;;;4998917;28;20210;-91
2023/09/01 17:47:14;;;;;;;3.00;2.70;;;20.50;63.30;;;;;;4988044;28;20207;-91
2023/09/01 17:49:41;;;;;;;2.30;2.10;;;20.40;67.40;;;;;;4981888;28;20209;-92
2023/09/01 17:52:08;;;;;;;3.42;2.20;;;20.40;68.30;;;;;;5130846;23;20233;-93
2023/09/01 17:54:35;;;;;;;3.38;1.98;;;20.30;69.70;;;;;;5006234;28;20235;-92
2023/09/01 17:57:05;;;;;;;6.88;3.60;;;20.20;72.50;;;;;;4998950;28;20650;-92
2023/09/01 17:59:31;;;;;;;4.88;2.88;;;20.10;76.50;;;;;;4999674;28;20204;-93
2023/09/01 18:02:00;;;;;;;3.50;2.65;;;20.00;78.20;;;;;;5004009;28;20202;-93
2023/09/01 18:04:27;;;;;;;9.88;4.30;;;19.80;80.70;;;;;;5009392;28;20230;-93
2023/09/01 18:06:54;;;;;;;6.57;3.60;;;19.70;80.70;;;;;;4992923;28;20208;-92
2023/09/01 18:09:21;;;;;;;6.18;3.42;;;19.60;84.10;;;;;;5005180;28;20210;-90
2023/09/01 18:11:51;;;;;;;8.73;4.32;;;19.50;86.20;;;;;;4994103;28;20204;-91
2023/09/01 18:18:00;;;;;;;3.80;2.70;;;19.30;89.10;;;;;;4990636;28;20187;-90
2023/09/01 18:23:40;;;;;;;5.57;3.60;;;19.10;90.60;;;;;;4958616;29;20209;-94
2023/09/01 18:29:31;;;;;;;6.07;3.00;;;19.00;91.00;;;;;;4958250;29;20243;-96
2023/09/01 18:32:00;;;;;;;6.32;3.35;;;19.00;91.50;;;;;;4945538;29;20212;-96
2023/09/01 18:37:21;;;;;;;5.78;3.60;;;19.00;91.00;;;;;;4943263;28;20194;-95
